Wailuku, Hawaii
Current Conditions -  °F | °C
As of 5:54 PM on Saturday 25 Oct 2014 (Local Time) from PHOG Reporting Station
Scattered Clouds Scattered Clouds  
Wind Chill: 79°   Ceiling: Unl
Heat Index: 81°   Visibility: 10mi
Dew Point: 68°   Wind: 16mph
Humidity: 69%   Direction: 60°ENE
Pressure: 29.96"   Gusts: 21mph
Location:  20.89°N, 156.5°W
Report Text: PHOG 260354Z 06014G18KT 10SM FEW025 SCT060 26/20 A2996 RMK AO2 PK WND 07027/0258 SLP149 T02610200 $
Loading
Personal Weather Stations






























Interactive Weather Map
Tropical Storm Tracking
New forecast layout! Learn more

10-Day Weather Forecast

Advertisements
Track Severe Weather on mobile